Ube, Japan

10:59 AM JST on 六月 28, 2017 (GMT +0900)
Norisada | | Change Station

高度 20 ft 33.94 °N, 131.28 °E | Updated 26 seconds ago

だいたい曇
だいたい曇
81.3 °F
体感気温 82 °F
0.0
風 変数 風 から 東南東
Gusts 0.0 Mph

今日
高い -- | 低 -- °F
--% 降水確率
昨日
高い -- | 低 -- °F
Precip. -- インチ
気圧 29.92 インチ
視程 4.3 マイル
わずか 600 ft
だいたい曇 1000 ft
だいたい曇 1500 ft
体感気温(暑さ) 82 °F
露点温度 59 °F
湿度 47%
降水 0.40 インチ
積雪深 利用不可。
5:06 AM 7:30 PM
三日月, 21% visible
SPECI RJOZ 280148Z 17008KT 7000 FEW006 BKN010 BKN015 24/22 Q1013 RMK 1ST006 5ST010 7CU015 A2992
気圧 29.92 インチ
視程 4.3 マイル
わずか 600 ft
だいたい曇 1000 ft
だいたい曇 1500 ft
体感気温(暑さ) 82 °F
露点温度 59 °F
湿度 47%
降水 0.40 インチ
積雪深 利用不可。
5:06 AM 7:30 PM
三日月, 21% visible
SPECI RJOZ 280148Z 17008KT 7000 FEW006 BKN010 BKN015 24/22 Q1013 RMK 1ST006 5ST010 7CU015 A2992

Get Severe Weather Alerts

Thanks for signing up!

Be on the lookout for a verification email in your inbox.

You'll start receiving the daily forecast at 6 AM.

×

10-Day Weather Forecast

No radar image for this location.
×

Almanac

天文

Jun. 28, 2017 入り
実時間
常用薄明
航海薄明
天文薄明
可視光の長さ
可照時間
Tomorrow will be .
, % of the Moon is Illuminated

今日の極値

Country Highs Country Lows

Community

Category 6

Welcome to Category 6. This is the collective home for Weather Underground's featured writeups by Dr. Jeff Masters (right), Bob Henson (left), Chris Burt, and other regular contributors.

Nearby

空気品質

  空気品質 大気質指数 汚染物質
Not available.

積雪深

Station Depth 高度

地震活動

Distance Mag. Time & Date
Minimum magnitude displayed is 2.5.

沿岸の水温

地名 気温

Stations

最寄りの気象観測所

観測所位置 温度 体感気温(寒さ) 露点温度 湿度 Precip. 高度 更新日時 タイプする